Time;durP1;ratioP1;P1;durP2;ratioP2;P2;SDS_P1;SDS_P2;PMS_P1;PMS_P2;Temp;Humidity;BMP_temperature;BMP_pressure;BME280_temperature;BME280_humidity;BME280_pressure;Samples;Min_cycle;Max_cycle;Signal;HPM_P1;HPM_P2
2021/03/07 00:01:19;;;;;;;26.00;13.10;;;-0.10;99.90;;;-0.75;68.30;101886.28;4973768;28;20391;-44
2021/03/07 00:03:44;;;;;;;25.40;12.40;;;-0.10;99.90;;;-0.71;67.90;101880.22;4975133;28;20043;-43
2021/03/07 00:06:10;;;;;;;19.67;10.48;;;-0.10;99.90;;;-0.74;68.22;101883.69;4970678;28;20041;-43
2021/03/07 00:08:37;;;;;;;18.20;9.88;;;-0.10;99.90;;;-0.73;67.89;101885.38;4950021;28;20038;-43
2021/03/07 00:11:03;;;;;;;10.95;6.82;;;-0.10;99.90;;;-0.72;67.19;101881.94;4968648;28;20116;-43
2021/03/07 00:13:29;;;;;;;15.23;7.28;;;-0.10;99.90;;;-0.77;66.86;101877.81;4971513;28;20034;-44
2021/03/07 00:15:55;;;;;;;16.27;8.82;;;-0.10;99.90;;;-0.77;67.24;101878.66;4969031;28;20044;-46
2021/03/07 00:18:22;;;;;;;15.95;8.35;;;-0.10;99.90;;;-0.77;68.18;101870.13;4971591;28;20062;-43
2021/03/07 00:20:48;;;;;;;14.55;8.18;;;-0.10;99.90;;;-0.86;68.10;101865.22;4974604;28;20034;-43
2021/03/07 00:23:14;;;;;;;12.23;5.75;;;-0.20;99.90;;;-0.84;68.29;101877.13;4975299;28;20519;-44
2021/03/07 00:25:40;;;;;;;9.05;4.20;;;-0.20;99.90;;;-0.81;66.31;101865.97;4970506;28;20038;-43
2021/03/07 00:28:07;;;;;;;12.40;5.22;;;-0.20;99.90;;;-0.78;65.59;101871.00;4972019;28;20082;-43
2021/03/07 00:30:33;;;;;;;13.77;5.35;;;-0.20;99.90;;;-0.77;66.82;101865.00;4976759;28;20092;-44
2021/03/07 00:32:58;;;;;;;9.55;5.05;;;-0.20;99.90;;;-0.80;67.02;101872.75;4982953;28;20141;-44
2021/03/07 00:35:24;;;;;;;8.18;4.53;;;-0.20;99.90;;;-0.87;67.69;101866.09;4969257;28;20126;-43
2021/03/07 00:37:51;;;;;;;9.27;5.20;;;-0.20;99.90;;;-0.92;66.93;101871.34;4971907;28;20034;-45
2021/03/07 00:40:17;;;;;;;11.18;6.75;;;-0.30;99.90;;;-0.88;66.83;101872.09;4968231;28;20121;-43
2021/03/07 00:42:48;;;;;;;12.95;6.25;;;-0.30;99.90;;;-0.90;68.20;101866.19;4984460;28;20069;-43
2021/03/07 00:45:17;;;;;;;12.30;6.47;;;-0.30;99.90;;;-0.98;68.44;101876.63;4969808;28;20035;-44
2021/03/07 00:47:44;;;;;;;20.48;7.43;;;-0.30;99.90;;;-1.04;68.37;101875.06;4972548;28;20498;-45
2021/03/07 00:50:23;;;;;;;13.38;7.13;;;-0.40;99.90;;;-1.15;68.65;101869.34;4969081;28;20556;-43
2021/03/07 00:52:49;;;;;;;14.88;7.40;;;-0.50;99.90;;;-1.17;68.85;101865.16;4979543;28;20052;-46
2021/03/07 00:55:16;;;;;;;18.08;8.43;;;-0.50;99.90;;;-1.22;69.02;101872.91;4969036;28;20030;-47
2021/03/07 00:57:42;;;;;;;16.23;8.57;;;-0.50;99.90;;;-1.26;69.58;101862.78;4968054;28;20118;-46
2021/03/07 01:00:27;;;;;;;14.13;8.77;;;-0.60;99.90;;;-1.22;71.15;101865.25;4969227;28;20035;-43
2021/03/07 01:02:53;;;;;;;14.43;7.70;;;-0.60;99.90;;;-1.28;69.54;101869.66;4989747;28;20386;-42
2021/03/07 01:05:25;;;;;;;17.08;9.98;;;-0.60;99.90;;;-1.30;69.86;101864.56;4969352;28;20038;-43
2021/03/07 01:07:51;;;;;;;15.68;8.15;;;-0.70;99.90;;;-1.33;70.90;101857.81;4971192;28;20117;-45
2021/03/07 01:10:28;;;;;;;15.05;7.82;;;-0.70;99.90;;;-1.30;70.25;101862.03;4971449;28;20129;-43
2021/03/07 01:12:54;;;;;;;14.68;7.22;;;-0.70;99.90;;;-1.34;70.22;101852.75;4972343;28;20042;-43
2021/03/07 01:15:25;;;;;;;15.98;6.40;;;-0.70;99.90;;;-1.37;70.74;101845.13;4969316;28;20489;-44
2021/03/07 01:17:51;;;;;;;13.13;6.70;;;-0.70;99.90;;;-1.28;69.78;101844.94;4970860;28;20035;-45
2021/03/07 01:20:18;;;;;;;11.65;5.82;;;-0.70;99.90;;;-1.25;69.78;101837.19;4969567;28;20066;-45
2021/03/07 01:22:45;;;;;;;16.05;7.05;;;-0.70;99.90;;;-1.25;69.40;101842.31;4970849;28;20047;-47
2021/03/07 01:25:12;;;;;;;13.57;7.15;;;-0.60;99.90;;;-1.27;70.43;101840.66;4970122;28;20185;-47
2021/03/07 01:27:38;;;;;;;15.02;6.07;;;-0.60;99.90;;;-1.34;70.07;101835.69;4970732;28;20059;-44
2021/03/07 01:30:10;;;;;;;11.85;5.90;;;-0.70;99.90;;;-1.34;69.83;101829.72;4968727;28;20030;-44
2021/03/07 01:32:36;;;;;;;11.00;5.88;;;-0.70;99.90;;;-1.35;69.06;101831.44;4971005;28;20120;-44
2021/03/07 01:35:04;;;;;;;13.60;6.22;;;-0.70;99.90;;;-1.37;69.19;101835.75;4968879;28;20122;-47
2021/03/07 01:37:30;;;;;;;8.93;5.00;;;-0.70;99.90;;;-1.34;69.28;101824.59;4970661;28;20046;-45
2021/03/07 01:39:56;;;;;;;11.25;5.63;;;-0.70;99.90;;;-1.32;69.58;101822.84;4969681;28;20446;-44
2021/03/07 01:42:22;;;;;;;16.02;7.32;;;-0.70;99.90;;;-1.35;69.87;101817.81;4970375;28;20050;-47
2021/03/07 01:44:48;;;;;;;17.17;7.75;;;-0.70;99.90;;;-1.43;70.82;101820.56;4968748;28;20066;-45
2021/03/07 01:47:31;;;;;;;17.05;8.75;;;-0.80;99.90;;;-1.48;72.52;101822.41;4968037;28;20073;-43
2021/03/07 01:49:59;;;;;;;21.55;8.60;;;-0.80;99.90;;;-1.54;72.45;101817.41;4968745;28;20059;-45
2021/03/07 01:52:25;;;;;;;18.55;8.05;;;-0.90;99.90;;;-1.61;71.55;101812.47;4960033;28;20553;-44
2021/03/07 01:54:51;;;;;;;18.70;8.68;;;-0.90;99.90;;;-1.63;71.75;101807.41;4969426;28;20487;-43
2021/03/07 01:57:22;;;;;;;18.10;7.93;;;-1.00;99.90;;;-1.62;71.97;101808.25;4961888;28;20042;-45
2021/03/07 01:59:50;;;;;;;18.13;9.15;;;-1.00;99.90;;;-1.65;71.70;101808.31;4943154;28;20043;-43
2021/03/07 02:02:16;;;;;;;15.20;8.00;;;-1.00;99.90;;;-1.61;72.19;101797.97;4968829;28;20142;-46
2021/03/07 02:04:42;;;;;;;17.80;8.75;;;-1.00;99.90;;;-1.59;72.61;101795.41;4968490;28;20058;-44
2021/03/07 02:07:09;;;;;;;18.33;8.57;;;-1.00;99.90;;;-1.64;72.71;101792.94;4954278;28;20043;-46
2021/03/07 02:09:35;;;;;;;18.42;8.55;;;-1.00;99.90;;;-1.62;71.88;101780.97;4956599;28;20503;-44
2021/03/07 02:12:01;;;;;;;20.95;8.98;;;-0.90;99.90;;;-1.62;72.14;101778.41;4959340;28;20527;-45
2021/03/07 02:14:30;;;;;;;16.42;8.50;;;-1.00;99.90;;;-1.58;72.61;101774.06;4968869;28;20081;-45
2021/03/07 02:16:58;;;;;;;13.88;7.53;;;-1.00;99.90;;;-1.60;72.77;101765.59;4948775;29;20039;-46
2021/03/07 02:19:34;;;;;;;17.60;8.75;;;-1.00;99.90;;;-1.59;72.73;101762.16;4958979;28;20058;-45
2021/03/07 02:22:02;;;;;;;;;;;-1.00;99.90;;;-1.60;73.56;101760.50;4967282;28;20097;-46
2021/03/07 02:24:28;;;;;;;50.20;21.13;;;-1.00;99.90;;;-1.62;71.95;101763.06;4952262;28;20341;-44
2021/03/07 02:26:54;;;;;;;38.80;15.70;;;-1.00;99.90;;;-1.64;71.67;101753.75;4965154;28;20085;-44
2021/03/07 02:29:22;;;;;;;37.35;16.73;;;-1.00;99.90;;;-1.68;72.12;101753.00;4969092;28;20121;-44
2021/03/07 02:32:04;;;;;;;35.28;15.27;;;-1.10;99.90;;;-1.69;72.64;101749.59;4949824;28;20045;-45
2021/03/07 02:34:47;;;;;;;36.55;15.40;;;-1.10;99.90;;;-1.73;72.92;101755.66;4952395;28;20038;-45
2021/03/07 02:37:16;;;;;;;22.42;11.20;;;-1.10;99.90;;;-1.77;73.06;101746.38;4963921;28;20043;-46
2021/03/07 02:39:44;;;;;;;24.42;12.02;;;-1.10;99.90;;;-1.87;72.36;101742.34;4966487;28;20057;-43
2021/03/07 02:42:22;;;;;;;25.60;11.75;;;-1.20;99.90;;;-1.93;72.92;101742.50;4967710;28;20070;-43
2021/03/07 02:45:15;;;;;;;20.83;9.25;;;-1.30;99.90;;;-1.94;73.07;101745.09;4968543;28;20058;-44
2021/03/07 02:47:46;;;;;;;12.88;6.07;;;-1.30;99.90;;;-1.94;73.41;101734.88;4955076;28;20042;-43
2021/03/07 02:50:24;;;;;;;16.48;6.10;;;-1.30;99.90;;;-1.94;73.44;101725.50;4967740;28;20538;-46
2021/03/07 02:53:02;;;;;;;19.67;8.60;;;-1.30;99.90;;;-1.96;73.62;101740.03;4947701;28;20518;-44
2021/03/07 02:55:34;;;;;;;13.35;6.43;;;-1.30;99.90;;;-2.00;73.59;101738.41;4948240;29;20050;-43
2021/03/07 02:58:13;;;;;;;10.07;5.47;;;-1.40;99.90;;;-1.96;74.31;101742.56;4961955;28;20150;-46
2021/03/07 03:00:51;;;;;;;14.95;6.82;;;-1.40;99.90;;;-2.01;73.53;101745.22;4961684;28;20396;-43
2021/03/07 03:03:27;;;;;;;13.05;7.05;;;-1.40;99.90;;;-2.07;73.75;101740.25;4961682;28;20038;-47
2021/03/07 03:05:54;;;;;;;18.05;8.20;;;-1.40;99.90;;;-2.08;74.42;101748.78;4946800;29;20083;-44
2021/03/07 03:08:21;;;;;;;9.95;5.90;;;-1.40;99.90;;;-2.13;74.13;101740.38;4957953;28;20122;-44
2021/03/07 03:10:50;;;;;;;10.35;4.20;;;-1.50;99.90;;;-2.14;73.91;101748.06;4936228;28;20031;-44
2021/03/07 03:13:19;;;;;;;9.60;4.90;;;-1.50;99.90;;;-2.13;73.10;101748.03;4964465;28;20039;-44
2021/03/07 03:15:46;;;;;;;6.88;3.28;;;-1.50;99.90;;;-2.07;72.92;101747.91;4961999;28;20114;-46
2021/03/07 03:18:15;;;;;;;9.27;3.75;;;-1.50;99.90;;;-2.07;73.00;101745.34;4948272;28;20042;-46
2021/03/07 03:20:42;;;;;;;6.30;3.38;;;-1.40;99.90;;;-2.02;72.81;101742.72;4967729;28;20039;-45
2021/03/07 03:23:09;;;;;;;8.38;3.58;;;-1.40;99.90;;;-2.11;72.74;101745.47;4957667;28;20134;-44
2021/03/07 03:25:35;;;;;;;6.22;2.72;;;-1.50;99.90;;;-2.10;71.51;101744.59;4962666;28;20480;-45
2021/03/07 03:28:01;;;;;;;6.13;2.85;;;-1.50;99.90;;;-2.03;70.86;101746.97;4932671;28;20562;-44
2021/03/07 03:30:27;;;;;;;4.90;2.50;;;-1.40;99.90;;;-2.07;70.84;101742.81;4968885;28;20035;-45
2021/03/07 03:32:54;;;;;;;4.15;1.83;;;-1.50;99.90;;;-1.96;70.38;101750.25;4968106;28;20039;-44
2021/03/07 03:35:21;;;;;;;7.50;2.72;;;-1.40;99.90;;;-1.94;69.27;101745.94;4967920;28;20050;-45
2021/03/07 03:37:49;;;;;;;4.28;2.20;;;-1.30;99.90;;;-1.93;69.16;101746.78;4969245;28;20054;-44
2021/03/07 03:40:25;;;;;;;5.97;2.38;;;-1.30;99.90;;;-1.93;69.21;101746.78;4968445;28;20238;-44
2021/03/07 03:42:58;;;;;;;5.78;2.60;;;-1.30;99.90;;;-1.97;69.87;101748.56;4948505;29;20101;-43
2021/03/07 03:45:26;;;;;;;7.53;1.80;;;-1.40;99.90;;;-2.04;69.78;101750.41;4944146;28;20563;-45
2021/03/07 03:48:00;;;;;;;7.78;2.47;;;-1.40;99.90;;;-1.97;69.12;101756.22;4944263;29;20095;-44
2021/03/07 03:50:29;;;;;;;5.15;1.60;;;-1.40;99.90;;;-2.20;72.63;101749.03;4947775;29;20061;-44
2021/03/07 03:52:56;;;;;;;5.30;1.92;;;-1.50;99.90;;;-2.39;73.91;101743.50;4948506;29;20122;-42
2021/03/07 03:55:27;;;;;;;5.47;1.83;;;-1.70;99.90;;;-2.38;73.40;101740.06;4948816;29;20045;-44
2021/03/07 03:58:03;;;;;;;4.50;2.22;;;-1.70;99.90;;;-2.36;72.30;101733.19;4948486;29;20043;-46
2021/03/07 04:00:34;;;;;;;4.38;1.85;;;-1.70;99.90;;;-2.34;71.61;101735.72;4950610;28;20067;-43
2021/03/07 04:03:01;;;;;;;6.57;2.47;;;-1.70;99.90;;;-2.34;71.00;101748.47;4951668;28;20468;-44
2021/03/07 04:05:30;;;;;;;8.32;2.85;;;-1.70;99.90;;;-2.35;71.37;101745.09;4952166;28;20039;-44
2021/03/07 04:07:58;;;;;;;5.25;2.40;;;-1.70;99.90;;;-2.30;71.32;101745.00;4953064;28;20038;-44
2021/03/07 04:10:26;;;;;;;5.30;2.92;;;-1.70;99.90;;;-2.33;71.46;101733.13;4952098;28;20042;-43
2021/03/07 04:12:59;;;;;;;5.35;2.20;;;-1.70;99.90;;;-2.36;71.73;101733.19;4953269;28;20101;-44
2021/03/07 04:15:27;;;;;;;5.97;2.35;;;-1.70;99.90;;;-2.39;72.27;101732.44;4951799;28;20035;-42
2021/03/07 04:17:55;;;;;;;5.30;3.17;;;-1.80;99.90;;;-2.36;72.05;101730.63;4950858;28;20406;-44
2021/03/07 04:20:24;;;;;;;7.15;2.25;;;-1.80;99.90;;;-2.46;71.73;101725.78;4946353;29;20043;-45
2021/03/07 04:22:50;;;;;;;6.40;2.80;;;-1.80;99.90;;;-2.47;72.25;101724.94;4947217;29;20039;-45
2021/03/07 04:25:16;;;;;;;5.22;2.60;;;-1.80;99.90;;;-2.42;72.30;101725.69;4937224;29;20487;-43
2021/03/07 04:27:43;;;;;;;6.63;3.10;;;-1.80;99.90;;;-2.41;72.33;101717.16;4951682;29;20122;-43
2021/03/07 04:30:11;;;;;;;6.80;2.92;;;-1.80;99.90;;;-2.34;72.26;101711.03;4947760;29;20166;-46
2021/03/07 04:32:39;;;;;;;6.47;2.88;;;-1.80;99.90;;;-2.25;70.72;101711.72;4934631;29;20131;-44
2021/03/07 04:35:06;;;;;;;3.63;1.67;;;-1.70;99.90;;;-2.14;70.43;101712.31;4950211;28;20031;-42
2021/03/07 04:37:33;;;;;;;3.95;2.10;;;-1.60;99.90;;;-2.00;69.45;101707.75;4935798;28;20035;-44
2021/03/07 04:39:59;;;;;;;4.82;2.10;;;-1.50;99.90;;;-1.96;69.36;101706.81;4937073;29;20118;-43
2021/03/07 04:42:25;;;;;;;5.03;2.65;;;-1.40;99.90;;;-1.99;70.15;101712.00;4949362;28;20166;-45
2021/03/07 04:44:51;;;;;;;6.03;2.42;;;-1.40;99.90;;;-2.08;70.31;101705.38;4971412;28;20046;-45
2021/03/07 04:47:17;;;;;;;4.70;1.58;;;-1.50;99.90;;;-2.16;70.74;101702.13;4971760;28;20066;-43
2021/03/07 04:49:43;;;;;;;4.03;1.67;;;-1.50;99.90;;;-2.16;70.27;101698.75;4969828;28;20469;-44
2021/03/07 04:52:09;;;;;;;3.80;1.73;;;-1.60;99.90;;;-2.19;70.25;101692.00;4971519;28;20031;-43
2021/03/07 04:54:35;;;;;;;4.63;1.67;;;-1.60;99.90;;;-2.08;69.39;101689.22;4971131;28;20058;-43
2021/03/07 04:57:05;;;;;;;5.35;2.22;;;-1.50;99.90;;;-2.23;69.89;101676.78;4970767;28;20046;-43
2021/03/07 04:59:31;;;;;;;4.38;2.70;;;-1.60;99.90;;;-2.37;70.38;101666.88;4969645;28;20061;-44
2021/03/07 05:01:57;;;;;;;3.83;1.88;;;-1.70;99.90;;;-2.48;70.82;101659.47;4971632;28;20031;-43
2021/03/07 05:04:24;;;;;;;6.47;2.13;;;-1.80;99.90;;;-2.50;71.33;101663.75;4970494;28;20038;-44
2021/03/07 05:06:51;;;;;;;4.47;2.28;;;-1.80;99.90;;;-2.53;71.51;101657.88;4970536;28;20058;-43
2021/03/07 05:09:17;;;;;;;6.07;2.08;;;-1.90;99.90;;;-2.42;71.08;101646.56;4970367;28;20061;-44
2021/03/07 05:11:43;;;;;;;5.15;2.05;;;-1.90;99.90;;;-2.28;69.03;101637.75;4970919;28;20078;-44
2021/03/07 05:14:09;;;;;;;4.13;1.98;;;-1.80;99.90;;;-2.27;68.79;101639.41;4970744;28;20117;-43
2021/03/07 05:16:35;;;;;;;6.35;3.42;;;-1.70;99.90;;;-2.20;68.32;101628.19;4970142;28;20038;-44
2021/03/07 05:19:03;;;;;;;9.57;3.33;;;-1.70;99.90;;;-1.99;66.67;101629.41;4948837;29;20594;-42
2021/03/07 05:21:29;;;;;;;3.30;1.80;;;-1.50;99.90;;;-1.93;66.24;101625.00;4970079;28;20043;-43
2021/03/07 05:23:55;;;;;;;2.63;1.05;;;-1.40;99.90;;;-1.64;63.92;101608.09;4970414;28;20038;-42
2021/03/07 05:26:22;;;;;;;4.28;1.17;;;-1.20;99.90;;;-1.57;64.14;101612.19;4970231;28;20046;-45
2021/03/07 05:28:48;;;;;;;3.05;1.10;;;-1.10;99.90;;;-1.71;65.32;101618.47;4970269;28;20041;-43
2021/03/07 05:31:15;;;;;;;3.20;0.95;;;-1.10;99.90;;;-1.84;65.54;101613.69;4970933;28;20087;-42
2021/03/07 05:33:41;;;;;;;10.13;4.75;;;-1.20;99.90;;;-1.91;65.78;101620.69;4969559;28;20101;-45
2021/03/07 05:36:07;;;;;;;3.05;1.48;;;-1.20;99.90;;;-1.99;66.37;101620.03;4969693;28;20403;-45
2021/03/07 05:38:33;;;;;;;3.55;1.90;;;-1.30;99.90;;;-1.91;65.85;101627.53;4970159;28;20097;-45
2021/03/07 05:40:59;;;;;;;5.63;2.35;;;-1.30;99.90;;;-1.85;65.52;101628.19;4970902;28;20130;-43
2021/03/07 05:43:26;;;;;;;7.63;3.30;;;-1.30;99.90;;;-1.83;66.00;101621.31;4951772;28;20455;-42
2021/03/07 05:45:52;;;;;;;6.80;2.45;;;-1.20;99.90;;;-1.80;66.17;101621.25;4969216;28;20073;-43
2021/03/07 05:48:18;;;;;;;4.05;2.20;;;-1.20;99.90;;;-1.73;66.67;101615.13;4968488;28;20146;-45
2021/03/07 05:50:44;;;;;;;3.65;1.65;;;-1.10;99.90;;;-1.65;66.44;101621.75;4969301;28;20086;-44
2021/03/07 05:53:12;;;;;;;4.90;2.72;;;-1.10;99.90;;;-1.68;66.29;101620.97;4965104;28;20039;-43
2021/03/07 05:55:38;;;;;;;5.43;2.55;;;-1.10;99.90;;;-1.73;65.96;101621.94;4968371;28;20145;-45
2021/03/07 05:58:05;;;;;;;4.47;1.30;;;-1.10;99.90;;;-1.69;65.53;101623.53;4980865;28;20043;-44
2021/03/07 06:00:32;;;;;;;4.28;1.50;;;-1.10;99.90;;;-1.57;65.01;101623.25;4969713;28;20089;-44
2021/03/07 06:02:58;;;;;;;6.18;2.10;;;-1.00;99.90;;;-1.54;65.49;101617.22;4969358;28;20090;-42
2021/03/07 06:05:24;;;;;;;4.25;1.88;;;-1.00;99.90;;;-1.46;66.34;101617.84;4968268;28;20117;-43
2021/03/07 06:07:50;;;;;;;7.45;3.83;;;-0.90;99.90;;;-1.36;65.51;101611.59;4969463;28;20082;-43
2021/03/07 06:10:25;;;;;;;13.98;6.60;;;-0.80;99.90;;;-1.27;66.17;101616.47;4970286;28;20471;-44
2021/03/07 06:13:01;;;;;;;9.40;4.80;;;-0.70;99.90;;;-1.13;65.89;101609.28;4969514;28;20486;-45
2021/03/07 06:15:29;;;;;;;16.33;8.57;;;-0.60;99.90;;;-1.03;65.78;101605.56;4969208;28;20261;-47
2021/03/07 06:17:55;;;;;;;5.15;2.25;;;-0.40;99.90;;;-0.97;64.51;101607.13;4969201;28;20118;-45
2021/03/07 06:20:24;;;;;;;7.43;3.28;;;-0.40;99.90;;;-0.79;64.54;101610.84;4968105;28;20039;-44
2021/03/07 06:23:05;;;;;;;9.55;4.43;;;-0.20;99.90;;;-0.54;62.94;101599.03;4969458;28;20039;-43
2021/03/07 06:25:31;;;;;;;8.98;4.22;;;-0.10;99.90;;;-0.36;63.82;101612.97;4969074;28;20042;-45
2021/03/07 06:27:59;;;;;;;10.63;5.47;;;0.10;99.90;;;-0.17;62.18;101605.56;4969133;28;20046;-45
2021/03/07 06:30:30;;;;;;;9.27;5.03;;;0.30;99.90;;;-0.01;62.48;101622.13;4951667;28;20129;-43
2021/03/07 06:33:00;;;;;;;7.30;3.60;;;0.50;99.90;;;0.08;62.62;101619.25;4948876;29;20113;-43
2021/03/07 06:35:34;;;;;;;12.48;4.43;;;0.60;99.90;;;0.16;63.36;101617.28;4959988;28;20047;-43
2021/03/07 06:38:10;;;;;;;8.05;4.40;;;0.80;99.90;;;0.27;63.02;101617.75;4955803;28;20074;-45
2021/03/07 06:40:39;;;;;;;9.93;5.28;;;0.80;99.90;;;0.48;62.65;101628.16;4969872;28;20034;-44
2021/03/07 06:43:23;;;;;;;9.63;5.13;;;1.00;99.30;;;0.70;62.02;101618.88;4968713;28;20278;-44
2021/03/07 06:45:49;;;;;;;12.35;7.97;;;1.20;98.70;;;0.83;61.71;101625.25;4969822;28;20113;-45
2021/03/07 06:48:15;;;;;;;9.85;6.55;;;1.50;98.10;;;1.14;60.32;101622.41;4968972;28;20502;-44
2021/03/07 06:50:58;;;;;;;9.48;5.40;;;1.90;95.70;;;1.41;59.17;101623.13;4967975;28;20125;-46
2021/03/07 06:53:39;;;;;;;12.18;5.30;;;2.10;94.40;;;1.70;58.49;101628.84;4969004;28;20121;-46
2021/03/07 06:56:05;;;;;;;9.20;4.93;;;2.20;94.00;;;1.76;58.52;101636.31;4965994;28;20424;-45
2021/03/07 06:58:32;;;;;;;8.05;3.97;;;2.30;92.60;;;1.95;57.16;101635.53;4933326;29;20244;-51
2021/03/07 07:00:58;;;;;;;9.15;4.35;;;2.50;91.00;;;2.19;56.54;101638.00;4959125;28;20031;-45
2021/03/07 07:03:24;;;;;;;8.90;5.03;;;2.70;90.90;;;2.38;55.36;101643.22;4969557;28;20054;-45
2021/03/07 07:05:54;;;;;;;6.00;3.53;;;2.80;86.20;;;2.49;54.12;101630.75;4969432;28;20050;-44
2021/03/07 07:08:56;;;;;;;6.40;3.88;;;3.00;83.00;;;2.71;52.40;101636.66;4968851;28;20042;-43
2021/03/07 07:11:22;;;;;;;7.47;3.85;;;3.20;81.30;;;2.84;52.57;101627.50;4890635;29;20048;-45
2021/03/07 07:13:51;;;;;;;8.52;3.88;;;3.30;78.90;;;2.98;52.55;101632.88;4889825;29;20142;-44
2021/03/07 07:16:17;;;;;;;7.05;3.38;;;3.40;78.50;;;3.20;52.22;101642.25;4887216;29;20073;-45
2021/03/07 07:18:45;;;;;;;6.97;3.40;;;3.70;78.00;;;3.32;51.65;101633.94;4874722;29;20060;-42
2021/03/07 07:21:15;;;;;;;8.18;3.47;;;3.80;77.40;;;3.34;52.48;101638.13;4890564;29;20507;-43
2021/03/07 07:23:41;;;;;;;7.18;3.65;;;3.90;78.30;;;3.42;52.88;101642.91;4890578;29;20539;-43
2021/03/07 07:26:08;;;;;;;7.10;3.38;;;4.00;79.10;;;3.54;52.54;101649.25;4892586;29;20099;-43
2021/03/07 07:28:35;;;;;;;6.45;4.05;;;4.10;77.40;;;3.70;52.34;101650.22;4909218;29;20420;-45
2021/03/07 07:31:18;;;;;;;5.68;3.45;;;4.20;77.70;;;3.88;51.76;101648.50;4905132;29;20130;-43
2021/03/07 07:33:56;;;;;;;10.00;4.45;;;4.30;78.30;;;3.83;50.86;101648.72;4891096;29;20052;-42
2021/03/07 07:36:55;;;;;;;4.68;2.85;;;4.40;76.20;;;4.04;47.33;101643.47;4878729;29;20048;-46
2021/03/07 07:39:32;;;;;;;7.60;3.63;;;4.50;74.50;;;4.20;49.98;101645.22;4890319;29;20080;-43
2021/03/07 07:42:17;;;;;;;12.00;6.22;;;4.70;73.30;;;4.31;50.02;101642.94;4878150;29;20101;-43
2021/03/07 07:44:43;;;;;;;10.88;6.05;;;4.80;72.50;;;4.44;50.42;101645.75;4906680;28;20042;-42
2021/03/07 07:47:09;;;;;;;6.40;3.75;;;4.90;73.40;;;4.70;49.51;101641.03;4973818;28;20049;-42
2021/03/07 07:49:48;;;;;;;9.45;3.80;;;5.10;72.50;;;4.68;47.71;101641.09;4972767;28;20031;-42
2021/03/07 07:52:30;;;;;;;6.60;4.20;;;5.20;70.40;;;4.93;48.55;101633.75;4972778;28;20487;-43
2021/03/07 07:55:00;;;;;;;6.70;4.38;;;5.30;70.80;;;5.07;48.72;101627.03;4972885;28;20062;-43
2021/03/07 07:57:51;;;;;;;7.80;4.30;;;5.50;70.60;;;5.17;46.86;101633.38;4972821;28;20138;-41
2021/03/07 08:00:20;;;;;;;4.88;3.17;;;5.60;69.50;;;5.38;47.58;101641.72;4972631;28;20038;-42
2021/03/07 08:02:46;;;;;;;4.38;2.10;;;5.80;67.70;;;5.39;44.87;101639.06;4972585;28;20072;-41
2021/03/07 08:05:35;;;;;;;5.22;2.47;;;5.90;61.60;;;5.53;41.24;101630.56;4972539;28;20058;-41
2021/03/07 08:08:07;;;;;;;2.47;1.20;;;6.00;58.70;;;5.81;43.33;101629.84;4960479;28;20058;-42
2021/03/07 08:10:39;;;;;;;5.97;1.42;;;6.30;60.80;;;5.87;42.35;101639.84;4972306;28;20054;-42
2021/03/07 08:13:27;;;;;;;5.82;2.30;;;6.40;59.00;;;5.72;40.21;101628.59;4972486;28;20111;-41
2021/03/07 08:16:05;;;;;;;4.32;2.25;;;6.30;57.60;;;5.80;41.83;101625.59;4972479;28;20042;-41
2021/03/07 08:18:52;;;;;;;3.25;1.42;;;6.30;59.00;;;6.01;41.09;101629.59;4972201;28;20506;-42
2021/03/07 08:21:20;;;;;;;3.83;1.00;;;6.40;58.40;;;6.19;40.75;101631.13;4972354;28;20046;-42
2021/03/07 08:24:08;;;;;;;3.28;1.05;;;6.60;55.20;;;6.22;39.30;101628.38;4972329;28;20062;-41
2021/03/07 08:26:44;;;;;;;2.30;1.15;;;6.70;54.90;;;6.44;38.61;101614.19;4972145;28;20528;-45
2021/03/07 08:29:45;;;;;;;4.18;1.10;;;6.80;54.00;;;6.43;37.56;101620.28;4972463;28;20046;-41
2021/03/07 08:32:44;;;;;;;4.03;1.58;;;6.90;53.70;;;6.59;37.44;101610.69;4972078;28;20105;-42
2021/03/07 08:35:24;;;;;;;4.38;1.65;;;7.00;52.80;;;6.26;37.63;101610.91;4972005;28;20113;-46
2021/03/07 08:38:17;;;;;;;3.58;1.50;;;6.90;52.10;;;6.39;37.39;101600.69;4972122;28;20120;-41
2021/03/07 08:40:56;;;;;;;4.10;2.05;;;6.80;53.80;;;6.26;35.84;101601.38;4971918;28;20088;-44
2021/03/07 08:43:22;;;;;;;4.18;1.83;;;6.90;52.70;;;6.59;39.92;101597.75;4952357;29;20071;-41
2021/03/07 08:46:12;;;;;;;2.28;1.30;;;7.00;53.90;;;6.60;35.89;101602.84;4954202;28;20130;-42
2021/03/07 08:48:42;;;;;;;3.92;1.70;;;7.10;52.50;;;6.63;39.22;101594.03;4954246;28;20559;-45
2021/03/07 08:51:10;;;;;;;2.97;1.52;;;7.10;53.00;;;6.78;38.74;101592.28;4971664;28;20089;-45
2021/03/07 08:53:42;;;;;;;3.20;1.40;;;7.20;52.20;;;6.94;36.18;101585.25;4971811;28;20077;-44
2021/03/07 08:56:09;;;;;;;4.25;1.42;;;7.40;51.90;;;6.97;37.94;101580.72;4970788;28;20051;-43
2021/03/07 08:58:36;;;;;;;4.25;1.70;;;7.40;51.50;;;7.10;37.77;101578.19;4952481;29;20348;-45
2021/03/07 09:01:03;;;;;;;3.78;1.65;;;7.50;51.20;;;7.10;37.38;101578.19;4959124;28;20041;-42
2021/03/07 09:03:29;;;;;;;3.58;1.38;;;7.60;50.90;;;7.38;36.77;101574.72;4971511;28;20427;-43
2021/03/07 09:05:55;;;;;;;3.42;1.35;;;7.70;51.00;;;7.43;36.45;101567.47;4971279;28;20094;-41
2021/03/07 09:08:27;;;;;;;3.70;1.50;;;7.80;49.50;;;7.68;35.96;101568.47;4971388;28;20494;-44
2021/03/07 09:10:57;;;;;;;2.50;0.85;;;8.10;49.80;;;8.06;35.91;101556.41;4971156;28;20526;-44
2021/03/07 09:13:26;;;;;;;3.45;1.45;;;8.40;50.00;;;8.06;35.93;101558.16;4971113;28;20102;-45
2021/03/07 09:15:54;;;;;;;2.92;1.35;;;8.40;49.40;;;8.26;36.02;101550.72;4971368;28;20101;-43
2021/03/07 09:18:24;;;;;;;3.10;1.10;;;8.60;50.40;;;8.53;35.26;101547.22;4971328;28;20208;-43
2021/03/07 09:20:55;;;;;;;3.08;1.38;;;8.90;48.90;;;8.67;34.67;101539.31;4971288;28;20495;-46
2021/03/07 09:23:48;;;;;;;2.10;1.17;;;9.10;48.70;;;8.87;32.97;101540.53;4970999;28;20043;-48
2021/03/07 09:26:19;;;;;;;2.78;1.27;;;9.30;47.70;;;9.05;33.60;101540.97;4970994;28;20034;-44
2021/03/07 09:28:48;;;;;;;1.95;1.00;;;9.40;47.80;;;8.54;34.10;101534.13;4970994;28;20046;-44
2021/03/07 09:31:17;;;;;;;2.55;1.30;;;9.10;45.50;;;8.17;34.38;101540.94;4970737;28;20031;-45
2021/03/07 09:33:56;;;;;;;4.18;1.80;;;8.80;46.10;;;8.64;33.11;101527.34;4970831;28;20043;-45
2021/03/07 09:36:27;;;;;;;2.83;1.02;;;8.90;46.90;;;8.94;33.68;101524.41;4980618;28;20062;-47
2021/03/07 09:39:05;;;;;;;2.45;0.70;;;9.20;46.30;;;9.08;30.60;101525.16;4967648;28;20197;-45
2021/03/07 09:41:36;;;;;;;3.55;1.33;;;9.50;45.70;;;8.94;31.33;101516.59;4969713;28;20082;-46
2021/03/07 09:44:10;;;;;;;3.45;1.40;;;9.40;43.10;;;8.82;31.38;101522.66;4969172;28;20096;-44
2021/03/07 09:46:41;;;;;;;2.83;1.17;;;9.30;43.80;;;8.92;31.86;101513.28;4942489;29;20067;-44
2021/03/07 09:49:09;;;;;;;2.50;0.90;;;9.30;44.60;;;9.09;31.92;101508.63;4951148;28;20035;-46
2021/03/07 09:51:39;;;;;;;2.35;1.00;;;9.40;44.50;;;9.10;30.17;101499.91;4963237;28;20024;-47
2021/03/07 09:54:14;;;;;;;2.20;1.25;;;9.60;43.30;;;8.84;33.39;101505.19;4951453;29;20061;-51
2021/03/07 09:56:41;;;;;;;2.83;1.13;;;9.40;45.20;;;8.92;32.43;101502.06;4966509;28;20130;-46
2021/03/07 09:59:19;;;;;;;3.08;1.25;;;9.40;44.20;;;9.19;30.66;101494.03;4969805;28;20046;-43
2021/03/07 10:01:57;;;;;;;4.80;1.20;;;9.60;43.90;;;9.41;30.80;101488.94;4964329;28;20049;-44
2021/03/07 10:04:45;;;;;;;5.35;1.25;;;9.70;44.00;;;9.71;29.94;101490.22;4970180;28;20097;-47
2021/03/07 10:07:11;;;;;;;2.25;0.80;;;10.10;43.60;;;9.67;30.79;101487.00;4950979;29;20043;-47
2021/03/07 10:10:10;;;;;;;1.98;1.00;;;10.10;42.10;;;9.57;28.03;101483.44;4958145;28;20098;-47
2021/03/07 10:12:52;;;;;;;1.92;0.80;;;10.00;41.30;;;9.31;28.70;101482.75;4959959;28;20034;-46
2021/03/07 10:15:39;;;;;;;1.83;1.23;;;9.90;41.60;;;9.34;29.57;101477.31;4967099;28;20065;-43
2021/03/07 10:18:13;;;;;;;2.50;0.90;;;9.80;41.80;;;9.60;28.89;101478.81;4970763;28;20046;-47
2021/03/07 10:20:46;;;;;;;3.78;0.90;;;10.00;42.40;;;9.76;30.04;101482.91;4969292;28;20046;-50
2021/03/07 10:23:13;;;;;;;4.18;1.30;;;10.10;42.60;;;10.01;30.16;101469.69;4958446;28;20062;-46
2021/03/07 10:25:48;;;;;;;2.90;1.08;;;10.40;42.20;;;9.97;28.12;101476.06;4969316;28;20027;-46
2021/03/07 10:28:25;;;;;;;1.98;0.85;;;10.40;41.30;;;9.83;27.87;101473.69;4952005;28;20039;-46
2021/03/07 10:30:53;;;;;;;2.70;0.90;;;10.30;39.30;;;9.86;30.28;101476.06;4970116;28;20154;-44